createdAt,value
2023-02-21T00:00:50.769Z,100526.38
2023-02-21T00:04:11.868Z,100514.66
2023-02-21T00:07:32.706Z,100503.13
2023-02-21T00:10:53.772Z,100500.38
2023-02-21T00:14:15.109Z,100508.41
2023-02-21T00:17:36.151Z,100501.84
2023-02-21T00:20:58.909Z,100506.47
2023-02-21T00:24:20.723Z,100484.81
2023-02-21T00:27:42.897Z,100511.34
2023-02-21T00:31:03.983Z,100511.84
2023-02-21T00:34:24.949Z,100497.66
2023-02-21T00:37:48.743Z,100503.50
2023-02-21T00:41:09.590Z,100516.88
2023-02-21T00:44:30.466Z,100511.00
2023-02-21T00:47:51.377Z,100504.97
2023-02-21T00:51:12.529Z,100499.59
2023-02-21T00:54:33.613Z,100500.34
2023-02-21T00:57:55.033Z,100496.91
2023-02-21T01:01:16.865Z,100479.94
2023-02-21T01:04:38.675Z,100486.59
2023-02-21T01:07:59.901Z,100494.59
2023-02-21T01:11:22.156Z,100479.25
2023-02-21T01:14:43.534Z,100478.91
2023-02-21T01:18:04.142Z,100491.84
2023-02-21T01:21:25.066Z,100492.34
2023-02-21T01:24:48.985Z,100481.72
2023-02-21T01:28:09.679Z,100477.75
2023-02-21T01:31:35.577Z,100493.31
2023-02-21T01:34:56.550Z,100489.88
2023-02-21T01:38:17.966Z,100487.88
2023-02-21T01:41:40.982Z,100500.09
2023-02-21T01:45:06.410Z,100471.81
2023-02-21T01:48:40.066Z,100486.38
2023-02-21T01:52:01.536Z,100457.69
2023-02-21T01:55:25.061Z,100468.31
2023-02-21T01:58:49.804Z,100463.25
2023-02-21T02:02:17.343Z,100461.50
2023-02-21T02:05:39.723Z,100463.59
2023-02-21T02:09:01.587Z,100459.19
2023-02-21T02:12:31.989Z,100464.13
2023-02-21T02:15:46.444Z,100464.78
2023-02-21T02:19:16.611Z,100454.63
2023-02-21T02:22:43.621Z,100464.94
2023-02-21T02:25:48.621Z,100467.88
2023-02-21T02:29:11.183Z,100456.75
2023-02-21T02:32:46.415Z,100453.81
2023-02-21T02:36:11.155Z,100458.53
2023-02-21T02:39:24.612Z,100437.59
2023-02-21T02:42:56.432Z,100451.84
2023-02-21T02:46:22.595Z,100448.88
2023-02-21T02:49:31.717Z,100394.91
2023-02-21T02:52:35.710Z,100432.22
2023-02-21T02:55:52.530Z,100422.13
2023-02-21T02:59:02.105Z,100424.38
2023-02-21T03:02:22.852Z,100424.38
2023-02-21T03:05:40.095Z,100442.84
2023-02-21T03:08:45.185Z,100432.94
2023-02-21T03:12:04.292Z,100444.69
2023-02-21T03:15:12.887Z,100442.38
2023-02-21T03:18:34.862Z,100431.47
2023-02-21T03:21:56.954Z,100430.28
2023-02-21T03:25:02.935Z,100429.31
2023-02-21T03:28:06.121Z,100434.59
2023-02-21T03:31:10.290Z,100437.56
2023-02-21T03:34:13.129Z,100446.38
2023-02-21T03:37:34.688Z,100457.19
2023-02-21T03:40:37.496Z,100454.91
2023-02-21T03:43:40.649Z,100454.88
2023-02-21T03:46:44.759Z,100447.53
2023-02-21T03:49:48.451Z,100455.56
2023-02-21T03:52:51.850Z,100446.72
2023-02-21T03:55:54.417Z,100458.31
2023-02-21T03:58:57.394Z,100444.59
2023-02-21T04:02:00.042Z,100437.25
2023-02-21T04:05:02.899Z,100447.38
2023-02-21T04:08:05.875Z,100436.59
2023-02-21T04:11:08.540Z,100444.75
2023-02-21T04:14:11.104Z,100454.91
2023-02-21T04:17:13.561Z,100450.81
2023-02-21T04:20:16.462Z,100450.00
2023-02-21T04:23:20.974Z,100439.03
2023-02-21T04:26:28.583Z,100442.47
2023-02-21T04:29:30.953Z,100436.91
2023-02-21T04:32:33.186Z,100434.47
2023-02-21T04:35:35.356Z,100437.53
2023-02-21T04:38:40.690Z,100449.50
2023-02-21T04:41:43.279Z,100439.84
2023-02-21T04:44:55.049Z,100454.88
2023-02-21T04:48:01.885Z,100447.03
2023-02-21T04:51:15.081Z,100449.31
2023-02-21T04:54:17.987Z,100435.75
2023-02-21T04:57:20.460Z,100450.97
2023-02-21T05:00:23.323Z,100450.00
2023-02-21T05:03:25.720Z,100451.13
2023-02-21T05:06:29.376Z,100444.78
2023-02-21T05:09:34.652Z,100448.38
2023-02-21T05:12:39.907Z,100440.50
2023-02-21T05:15:43.915Z,100457.00
2023-02-21T05:18:48.488Z,100445.41
2023-02-21T05:21:50.797Z,100449.50
2023-02-21T05:24:53.614Z,100454.56
2023-02-21T05:27:56.072Z,100448.34
2023-02-21T05:31:00.935Z,100423.66
2023-02-21T05:34:04.302Z,100435.25
2023-02-21T05:37:07.306Z,100447.19
2023-02-21T05:40:13.294Z,100426.63
2023-02-21T05:43:16.246Z,100434.63
2023-02-21T05:46:28.785Z,100431.00
2023-02-21T05:49:31.156Z,100430.03
2023-02-21T05:52:33.938Z,100432.00
2023-02-21T05:55:37.316Z,100433.16
2023-02-21T05:58:40.066Z,100425.63
2023-02-21T06:01:43.372Z,100439.22
2023-02-21T06:04:46.699Z,100441.31
2023-02-21T06:07:50.078Z,100444.09
2023-02-21T06:15:52.799Z,100449.00
2023-02-21T06:18:57.050Z,100449.31
2023-02-21T06:22:00.215Z,100445.25
2023-02-21T06:25:02.259Z,100449.50
2023-02-21T06:28:12.853Z,100442.13
2023-02-21T06:31:28.805Z,100449.66
2023-02-21T06:34:34.880Z,100454.38
2023-02-21T06:37:37.351Z,100441.81
2023-02-21T06:40:39.365Z,100443.78
2023-02-21T06:43:41.633Z,100458.97
2023-02-21T06:46:51.692Z,100451.09
2023-02-21T06:49:56.610Z,100460.59
2023-02-21T06:52:58.796Z,100475.47
2023-02-21T06:56:01.998Z,100467.44
2023-02-21T06:59:06.850Z,100460.38
2023-02-21T07:02:19.022Z,100478.38
2023-02-21T07:05:21.606Z,100471.47
2023-02-21T07:08:27.088Z,100477.69
2023-02-21T07:11:35.397Z,100484.41
2023-02-21T07:14:40.217Z,100467.25
2023-02-21T07:17:43.987Z,100485.88
2023-02-21T07:20:46.865Z,100483.41
2023-02-21T07:23:49.365Z,100498.59
2023-02-21T07:26:52.132Z,100492.53
2023-02-21T07:29:54.089Z,100492.66
2023-02-21T07:32:56.651Z,100508.88
2023-02-21T07:36:13.651Z,100514.13
2023-02-21T07:39:16.248Z,100481.50
2023-02-21T07:42:18.463Z,100479.31
2023-02-21T07:45:20.598Z,100485.22
2023-02-21T07:48:23.365Z,100495.97
2023-02-21T07:51:30.766Z,100503.63
2023-02-21T07:54:33.901Z,100484.00
2023-02-21T07:57:42.695Z,100506.19
2023-02-21T08:00:48.425Z,100499.31
2023-02-21T08:03:56.420Z,100502.56
2023-02-21T08:07:04.150Z,100487.88
2023-02-21T08:10:17.506Z,100506.81
2023-02-21T08:13:26.415Z,100487.66
2023-02-21T08:16:35.963Z,100506.16
2023-02-21T08:19:41.346Z,100475.06
2023-02-21T08:22:43.499Z,100504.47
2023-02-21T08:25:47.000Z,100498.22
2023-02-21T08:28:49.031Z,100500.81
2023-02-21T08:31:51.548Z,100503.44
2023-02-21T08:34:55.076Z,100490.50
2023-02-21T08:37:57.534Z,100509.97
2023-02-21T08:41:00.425Z,100492.44
2023-02-21T08:44:02.544Z,100509.91
2023-02-21T08:47:04.507Z,100510.56
2023-02-21T08:50:06.765Z,100488.31
2023-02-21T08:53:15.524Z,100472.63
2023-02-21T08:56:21.337Z,100496.63
2023-02-21T08:59:24.219Z,100490.84
2023-02-21T09:02:27.704Z,100492.00
2023-02-21T09:05:32.730Z,100498.81
2023-02-21T09:08:37.230Z,100495.97
2023-02-21T09:11:39.677Z,100496.25
2023-02-21T09:14:43.694Z,100498.53
2023-02-21T09:17:45.598Z,100491.06
2023-02-21T09:20:52.653Z,100491.47
2023-02-21T09:23:56.778Z,100489.47
2023-02-21T09:27:03.219Z,100497.72
2023-02-21T09:30:17.714Z,100488.09
2023-02-21T09:33:21.024Z,100472.34
2023-02-21T09:36:24.447Z,100481.25
2023-02-21T09:39:26.565Z,100470.56
2023-02-21T09:42:31.534Z,100483.34
2023-02-21T09:45:36.065Z,100490.41
2023-02-21T09:48:39.791Z,100501.75
2023-02-21T09:51:51.158Z,100494.50
2023-02-21T09:54:59.253Z,100493.34
2023-02-21T09:58:02.327Z,100483.19
2023-02-21T10:01:14.272Z,100490.78
2023-02-21T10:04:28.847Z,100486.34
2023-02-21T10:07:47.543Z,100491.44
2023-02-21T10:11:07.728Z,100500.88
2023-02-21T10:14:14.407Z,100496.25
2023-02-21T10:17:28.528Z,100492.50
2023-02-21T10:20:48.454Z,100498.69
2023-02-21T10:23:54.926Z,100494.44
2023-02-21T10:27:04.748Z,100492.16
2023-02-21T10:30:11.200Z,100483.44
2023-02-21T10:33:13.793Z,100480.28
2023-02-21T10:36:22.555Z,100473.28
2023-02-21T10:39:36.060Z,100476.78
2023-02-21T10:42:46.838Z,100475.34
2023-02-21T10:45:57.101Z,100463.63
2023-02-21T10:49:48.469Z,100477.16
2023-02-21T10:53:08.744Z,100481.25
2023-02-21T10:56:30.942Z,100459.84
2023-02-21T10:59:43.928Z,100447.09
2023-02-21T11:02:57.830Z,100457.38
2023-02-21T11:10:06.502Z,100474.50
2023-02-21T11:13:17.239Z,100465.47
2023-02-21T11:16:22.256Z,100466.56
2023-02-21T11:19:24.792Z,100464.72
2023-02-21T11:22:45.394Z,100451.31
2023-02-21T11:25:48.584Z,100453.44
2023-02-21T11:28:52.796Z,100438.16
2023-02-21T11:31:56.005Z,100441.00
2023-02-21T11:35:05.783Z,100449.00
2023-02-21T11:38:29.140Z,100446.56
2023-02-21T11:41:34.465Z,100445.53
2023-02-21T11:44:39.678Z,100462.56
2023-02-21T11:48:05.168Z,100452.34
2023-02-21T11:51:31.457Z,100447.81
2023-02-21T11:54:34.256Z,100457.13
2023-02-21T11:58:00.048Z,100443.53
2023-02-21T12:01:15.698Z,100427.72
2023-02-21T12:04:24.144Z,100445.66
2023-02-21T12:07:49.768Z,100450.91
2023-02-21T12:11:02.182Z,100457.84
2023-02-21T12:14:31.218Z,100457.03
2023-02-21T12:17:55.295Z,100452.53
2023-02-21T12:21:13.572Z,100450.59
2023-02-21T12:24:45.755Z,100452.13
2023-02-21T12:27:56.497Z,100460.31
2023-02-21T12:31:23.373Z,100465.59
2023-02-21T12:34:51.977Z,100452.94
2023-02-21T12:38:08.514Z,100447.09
2023-02-21T12:41:44.602Z,100461.56
2023-02-21T12:45:20.722Z,100461.19
2023-02-21T12:48:38.612Z,100462.28
2023-02-21T12:52:11.278Z,100465.22
2023-02-21T12:55:21.640Z,100445.22
2023-02-21T12:58:27.347Z,100457.50
2023-02-21T13:01:44.267Z,100451.19
2023-02-21T13:05:06.821Z,100463.78
2023-02-21T13:08:36.728Z,100465.34
2023-02-21T13:12:03.971Z,100462.84
2023-02-21T13:15:30.172Z,100450.41
2023-02-21T13:18:37.843Z,100449.78
2023-02-21T13:21:55.350Z,100459.38
2023-02-21T13:25:19.725Z,100458.00
2023-02-21T13:28:24.321Z,100441.25
2023-02-21T13:31:37.330Z,100452.47
2023-02-21T13:34:55.250Z,100442.56
2023-02-21T13:37:59.332Z,100439.09
2023-02-21T13:41:17.371Z,100438.19
2023-02-21T13:44:31.901Z,100424.91
2023-02-21T13:48:00.249Z,100430.25
2023-02-21T13:51:02.565Z,100439.47
2023-02-21T13:54:12.647Z,100442.66
2023-02-21T13:57:32.057Z,100438.81
2023-02-21T14:00:35.429Z,100436.94
2023-02-21T14:03:40.859Z,100444.31
2023-02-21T14:06:59.845Z,100437.13
2023-02-21T14:10:02.746Z,100430.97
2023-02-21T14:13:39.075Z,100434.63
2023-02-21T14:17:09.671Z,100441.72
2023-02-21T14:20:19.868Z,100430.88
2023-02-21T14:23:57.587Z,100438.38
2023-02-21T14:27:27.175Z,100426.72
2023-02-21T14:30:37.408Z,100432.78
2023-02-21T14:33:39.959Z,100431.66
2023-02-21T14:36:49.374Z,100426.91
2023-02-21T14:39:59.163Z,100440.91
2023-02-21T14:43:38.456Z,100433.63
2023-02-21T14:47:29.429Z,100446.78
2023-02-21T14:50:47.306Z,100452.47
2023-02-21T14:54:01.378Z,100443.84
2023-02-21T14:57:35.994Z,100442.22
2023-02-21T15:01:00.642Z,100449.34
2023-02-21T15:04:35.420Z,100439.50
2023-02-21T15:07:40.291Z,100446.94
2023-02-21T15:10:58.721Z,100409.00
2023-02-21T15:14:28.806Z,100423.13
2023-02-21T15:17:34.862Z,100418.84
2023-02-21T15:20:45.313Z,100432.72
2023-02-21T15:24:03.284Z,100443.53
2023-02-21T15:27:12.558Z,100440.63
2023-02-21T15:30:25.768Z,100458.19
2023-02-21T15:33:44.635Z,100425.84
2023-02-21T15:37:22.894Z,100450.25
2023-02-21T15:40:29.275Z,100445.53
2023-02-21T15:43:55.485Z,100444.81
2023-02-21T15:47:21.170Z,100437.28
2023-02-21T15:50:42.881Z,100448.97
2023-02-21T15:54:08.773Z,100447.34
2023-02-21T15:57:11.927Z,100451.25
2023-02-21T16:00:20.072Z,100446.81
2023-02-21T16:03:49.516Z,100454.69
2023-02-21T16:07:03.843Z,100462.31
2023-02-21T16:10:14.886Z,100458.69
2023-02-21T16:13:21.271Z,100460.78
2023-02-21T16:16:27.924Z,100440.22
2023-02-21T16:19:34.933Z,100426.34
2023-02-21T16:23:08.052Z,100469.13
2023-02-21T16:26:14.197Z,100474.31
2023-02-21T16:32:46.096Z,100447.66
2023-02-21T16:35:51.305Z,100480.19
2023-02-21T16:39:04.415Z,100481.38
2023-02-21T16:42:11.272Z,100455.25
2023-02-21T16:45:23.355Z,100459.22
2023-02-21T16:48:38.141Z,100494.59
2023-02-21T16:51:43.868Z,100496.56
2023-02-21T16:54:47.443Z,100486.06
2023-02-21T16:57:54.045Z,100484.19
2023-02-21T17:01:11.775Z,100492.31
2023-02-21T17:04:32.664Z,100503.22
2023-02-21T17:07:36.007Z,100481.38
2023-02-21T17:10:41.812Z,100479.00
2023-02-21T17:13:47.555Z,100503.84
2023-02-21T17:17:01.564Z,100508.91
2023-02-21T17:20:05.991Z,100500.84
2023-02-21T17:23:20.404Z,100493.78
2023-02-21T17:26:23.689Z,100515.00
2023-02-21T17:29:29.304Z,100504.94
2023-02-21T17:32:35.589Z,100512.66
2023-02-21T17:35:39.270Z,100515.53
2023-02-21T17:38:42.744Z,100510.75
2023-02-21T17:41:50.637Z,100515.53
2023-02-21T17:44:59.216Z,100516.72
2023-02-21T17:48:05.864Z,100515.53
2023-02-21T17:51:13.589Z,100506.94
2023-02-21T17:54:24.865Z,100506.47
2023-02-21T17:57:27.659Z,100517.75
2023-02-21T18:00:34.632Z,100527.88
2023-02-21T18:03:38.467Z,100515.00
2023-02-21T18:06:44.388Z,100512.38
2023-02-21T18:09:50.718Z,100517.28
2023-02-21T18:12:53.793Z,100519.16
2023-02-21T18:15:57.195Z,100510.81
2023-02-21T18:19:00.350Z,100500.97
2023-02-21T18:22:14.627Z,100498.69
2023-02-21T18:25:25.567Z,100496.22
2023-02-21T18:28:30.561Z,100505.53
2023-02-21T18:31:35.236Z,100508.09
2023-02-21T18:34:38.447Z,100502.44
2023-02-21T18:37:42.330Z,100497.66
2023-02-21T18:40:49.858Z,100506.69
2023-02-21T18:43:54.879Z,100492.72
2023-02-21T18:46:59.614Z,100511.63
2023-02-21T18:50:02.983Z,100513.81
2023-02-21T18:53:07.006Z,100513.56
2023-02-21T18:56:14.946Z,100505.56
2023-02-21T18:59:22.555Z,100511.91
2023-02-21T19:02:27.918Z,100514.63
2023-02-21T19:05:36.745Z,100504.78
2023-02-21T19:08:42.486Z,100502.28
2023-02-21T19:11:46.186Z,100507.72
2023-02-21T19:14:48.890Z,100514.78
2023-02-21T19:17:51.608Z,100518.91
2023-02-21T19:20:55.281Z,100511.03
2023-02-21T19:23:59.217Z,100505.38
2023-02-21T19:27:02.831Z,100508.69
2023-02-21T19:30:08.061Z,100516.50
2023-02-21T19:33:12.137Z,100513.78
2023-02-21T19:36:15.921Z,100504.28
2023-02-21T19:39:19.492Z,100471.28
2023-02-21T19:42:29.172Z,100486.22
2023-02-21T19:45:32.396Z,100511.72
2023-02-21T19:48:37.205Z,100519.91
2023-02-21T19:51:40.042Z,100495.06
2023-02-21T19:54:43.899Z,100522.09
2023-02-21T19:57:50.373Z,100527.78
2023-02-21T20:00:53.760Z,100501.09
2023-02-21T20:04:03.517Z,100516.66
2023-02-21T20:07:11.214Z,100527.66
2023-02-21T20:10:19.638Z,100504.91
2023-02-21T20:13:25.752Z,100527.47
2023-02-21T20:16:33.817Z,100501.59
2023-02-21T20:19:36.926Z,100522.03
2023-02-21T20:22:41.538Z,100484.22
2023-02-21T20:25:46.997Z,100529.50
2023-02-21T20:28:56.263Z,100503.78
2023-02-21T20:32:07.168Z,100505.94
2023-02-21T20:35:16.335Z,100534.09
2023-02-21T20:38:22.902Z,100496.97
2023-02-21T20:41:32.747Z,100538.97
2023-02-21T20:44:38.851Z,100513.91
2023-02-21T20:47:42.158Z,100513.97
2023-02-21T20:50:46.655Z,100544.03
2023-02-21T20:53:49.647Z,100545.22
2023-02-21T20:56:56.958Z,100551.16
2023-02-21T21:00:01.106Z,100554.69
2023-02-21T21:03:06.072Z,100544.25
2023-02-21T21:06:12.384Z,100543.75
2023-02-21T21:09:18.154Z,100545.53
2023-02-21T21:12:24.059Z,100561.91
2023-02-21T21:15:26.993Z,100546.16
2023-02-21T21:18:29.665Z,100558.44
2023-02-21T21:21:33.052Z,100559.56
2023-02-21T21:24:36.852Z,100561.06
2023-02-21T21:27:44.693Z,100559.41
2023-02-21T21:30:48.083Z,100565.31
2023-02-21T21:33:50.671Z,100566.84
2023-02-21T21:36:57.547Z,100568.00
2023-02-21T21:40:14.698Z,100571.91
2023-02-21T21:43:18.433Z,100565.22
2023-02-21T21:46:22.582Z,100557.19
2023-02-21T21:49:24.999Z,100559.59
2023-02-21T21:52:27.782Z,100559.31
2023-02-21T21:55:32.050Z,100567.16
2023-02-21T21:58:35.551Z,100564.88
2023-02-21T22:01:43.260Z,100572.91
2023-02-21T22:04:47.019Z,100564.56
2023-02-21T22:07:49.534Z,100572.41
2023-02-21T22:10:52.766Z,100564.88
2023-02-21T22:13:55.646Z,100582.25
2023-02-21T22:16:58.706Z,100576.34
2023-02-21T22:20:01.788Z,100567.97
2023-02-21T22:23:07.233Z,100570.78
2023-02-21T22:26:17.363Z,100564.06
2023-02-21T22:29:21.044Z,100570.94
2023-02-21T22:32:23.662Z,100566.88
2023-02-21T22:35:28.810Z,100561.63
2023-02-21T22:38:32.394Z,100561.63
2023-02-21T22:41:34.998Z,100566.38
2023-02-21T22:44:37.845Z,100563.09
2023-02-21T22:47:45.012Z,100558.19
2023-02-21T22:51:01.477Z,100534.88
2023-02-21T22:54:05.592Z,100532.78
2023-02-21T22:57:08.553Z,100544.22
2023-02-21T23:00:20.220Z,100570.06
2023-02-21T23:03:28.858Z,100538.31
2023-02-21T23:06:32.819Z,100571.88
2023-02-21T23:09:37.628Z,100566.47
2023-02-21T23:12:40.039Z,100537.66
2023-02-21T23:15:43.433Z,100555.66
2023-02-21T23:18:46.562Z,100571.06
2023-02-21T23:21:51.919Z,100548.78
2023-02-21T23:24:55.049Z,100558.59
2023-02-21T23:28:05.191Z,100530.78
2023-02-21T23:31:08.514Z,100552.91
2023-02-21T23:34:12.421Z,100572.03
2023-02-21T23:37:15.548Z,100572.03
2023-02-21T23:40:21.802Z,100569.06
2023-02-21T23:43:29.590Z,100566.44
2023-02-21T23:46:32.077Z,100567.44
2023-02-21T23:49:34.499Z,100560.88
2023-02-21T23:52:37.521Z,100566.63
2023-02-21T23:55:40.547Z,100559.09
2023-02-21T23:58:45.553Z,100569.22
